sensor_id;sensor_type;location;lat;lon;timestamp;pressure;altitude;pressure_sealevel;temperature;humidity
56681;BME280;42558;52.388;13.390;2022-12-07T00:02:13;100852.23;;;1.01;100.00
56681;BME280;42558;52.388;13.390;2022-12-07T00:04:42;100847.60;;;1.02;100.00
56681;BME280;42558;52.388;13.390;2022-12-07T00:07:13;100846.94;;;0.99;100.00
56681;BME280;42558;52.388;13.390;2022-12-07T00:09:43;100846.83;;;1.01;100.00
56681;BME280;42558;52.388;13.390;2022-12-07T00:12:13;100841.49;;;0.98;100.00
56681;BME280;42558;52.388;13.390;2022-12-07T00:14:44;100840.39;;;0.94;100.00
56681;BME280;42558;52.388;13.390;2022-12-07T00:17:14;100841.63;;;0.91;100.00
56681;BME280;42558;52.388;13.390;2022-12-07T00:19:43;100842.71;;;0.89;100.00
56681;BME280;42558;52.388;13.390;2022-12-07T00:22:13;100842.33;;;0.85;100.00
56681;BME280;42558;52.388;13.390;2022-12-07T00:24:43;100838.21;;;0.82;100.00
56681;BME280;42558;52.388;13.390;2022-12-07T00:27:13;100838.79;;;0.79;100.00
56681;BME280;42558;52.388;13.390;2022-12-07T00:29:42;100843.77;;;0.75;100.00
56681;BME280;42558;52.388;13.390;2022-12-07T00:32:12;100838.00;;;0.74;100.00
56681;BME280;42558;52.388;13.390;2022-12-07T00:34:42;100834.81;;;0.76;100.00
56681;BME280;42558;52.388;13.390;2022-12-07T00:37:12;100828.52;;;0.73;100.00
56681;BME280;42558;52.388;13.390;2022-12-07T00:39:42;100830.15;;;0.70;100.00
56681;BME280;42558;52.388;13.390;2022-12-07T00:42:13;100822.68;;;0.69;100.00
56681;BME280;42558;52.388;13.390;2022-12-07T00:44:43;100824.21;;;0.66;100.00
56681;BME280;42558;52.388;13.390;2022-12-07T00:47:13;100820.02;;;0.59;100.00
56681;BME280;42558;52.388;13.390;2022-12-07T00:49:43;100821.96;;;0.47;100.00
56681;BME280;42558;52.388;13.390;2022-12-07T00:52:12;100820.50;;;0.42;100.00
56681;BME280;42558;52.388;13.390;2022-12-07T00:54:42;100822.92;;;0.37;100.00
56681;BME280;42558;52.388;13.390;2022-12-07T00:57:11;100816.95;;;0.25;100.00
56681;BME280;42558;52.388;13.390;2022-12-07T00:59:39;100813.55;;;0.20;100.00
56681;BME280;42558;52.388;13.390;2022-12-07T01:02:08;100812.83;;;0.19;100.00
56681;BME280;42558;52.388;13.390;2022-12-07T01:04:36;100808.66;;;0.16;100.00
56681;BME280;42558;52.388;13.390;2022-12-07T01:07:05;100810.27;;;0.17;100.00
56681;BME280;42558;52.388;13.390;2022-12-07T01:09:33;100807.59;;;0.13;100.00
56681;BME280;42558;52.388;13.390;2022-12-07T01:12:02;100809.51;;;0.13;100.00
56681;BME280;42558;52.388;13.390;2022-12-07T01:14:33;100807.47;;;0.13;100.00
56681;BME280;42558;52.388;13.390;2022-12-07T01:17:03;100811.64;;;0.17;100.00
56681;BME280;42558;52.388;13.390;2022-12-07T01:19:33;100809.34;;;0.19;100.00
56681;BME280;42558;52.388;13.390;2022-12-07T01:22:03;100807.30;;;0.23;100.00
56681;BME280;42558;52.388;13.390;2022-12-07T01:24:33;100805.09;;;0.20;100.00
56681;BME280;42558;52.388;13.390;2022-12-07T01:27:02;100799.58;;;0.20;100.00
56681;BME280;42558;52.388;13.390;2022-12-07T01:29:32;100801.80;;;0.23;100.00
56681;BME280;42558;52.388;13.390;2022-12-07T01:32:02;100793.70;;;0.23;100.00
56681;BME280;42558;52.388;13.390;2022-12-07T01:34:32;100791.75;;;0.23;100.00
56681;BME280;42558;52.388;13.390;2022-12-07T01:37:02;100787.89;;;0.21;100.00
56681;BME280;42558;52.388;13.390;2022-12-07T01:39:31;100783.10;;;0.22;100.00
56681;BME280;42558;52.388;13.390;2022-12-07T01:41:59;100779.02;;;0.20;100.00
56681;BME280;42558;52.388;13.390;2022-12-07T01:44:31;100775.20;;;0.20;100.00
56681;BME280;42558;52.388;13.390;2022-12-07T01:47:04;100778.44;;;0.14;100.00
56681;BME280;42558;52.388;13.390;2022-12-07T01:49:43;100777.27;;;0.17;100.00
56681;BME280;42558;52.388;13.390;2022-12-07T01:52:27;100779.75;;;0.12;100.00
56681;BME280;42558;52.388;13.390;2022-12-07T01:55:04;100774.79;;;0.16;100.00
56681;BME280;42558;52.388;13.390;2022-12-07T01:57:41;100769.61;;;0.22;100.00
56681;BME280;42558;52.388;13.390;2022-12-07T02:00:13;100764.70;;;0.18;100.00
56681;BME280;42558;52.388;13.390;2022-12-07T02:02:51;100762.23;;;0.05;100.00
56681;BME280;42558;52.388;13.390;2022-12-07T02:05:25;100762.85;;;0.00;100.00
56681;BME280;42558;52.388;13.390;2022-12-07T02:07:57;100759.37;;;-0.03;100.00
56681;BME280;42558;52.388;13.390;2022-12-07T02:10:30;100758.39;;;-0.05;100.00
56681;BME280;42558;52.388;13.390;2022-12-07T02:13:19;100757.30;;;-0.03;100.00
56681;BME280;42558;52.388;13.390;2022-12-07T02:16:36;100755.33;;;-0.01;100.00
56681;BME280;42558;52.388;13.390;2022-12-07T02:26:18;100751.94;;;-0.22;100.00
56681;BME280;42558;52.388;13.390;2022-12-07T02:31:49;100748.55;;;-0.30;100.00
56681;BME280;42558;52.388;13.390;2022-12-07T02:34:35;100748.70;;;-0.31;100.00
56681;BME280;42558;52.388;13.390;2022-12-07T02:37:21;100740.22;;;-0.33;100.00
56681;BME280;42558;52.388;13.390;2022-12-07T02:40:08;100736.08;;;-0.34;100.00
56681;BME280;42558;52.388;13.390;2022-12-07T02:42:44;100736.18;;;-0.35;100.00
56681;BME280;42558;52.388;13.390;2022-12-07T02:45:20;100734.56;;;-0.36;100.00
56681;BME280;42558;52.388;13.390;2022-12-07T02:47:56;100734.35;;;-0.37;100.00
56681;BME280;42558;52.388;13.390;2022-12-07T02:50:28;100730.98;;;-0.38;100.00
56681;BME280;42558;52.388;13.390;2022-12-07T02:52:58;100725.23;;;-0.39;100.00
56681;BME280;42558;52.388;13.390;2022-12-07T02:55:39;100725.86;;;-0.40;100.00
56681;BME280;42558;52.388;13.390;2022-12-07T03:07:50;100709.17;;;-0.36;100.00
56681;BME280;42558;52.388;13.390;2022-12-07T03:10:47;100703.21;;;-0.34;100.00
56681;BME280;42558;52.388;13.390;2022-12-07T03:13:25;100700.71;;;-0.36;100.00
56681;BME280;42558;52.388;13.390;2022-12-07T03:16:14;100700.38;;;-0.33;100.00
56681;BME280;42558;52.388;13.390;2022-12-07T03:18:54;100695.68;;;-0.27;100.00
56681;BME280;42558;52.388;13.390;2022-12-07T03:22:07;100690.59;;;-0.25;100.00
56681;BME280;42558;52.388;13.390;2022-12-07T03:24:33;100684.40;;;-0.24;100.00
56681;BME280;42558;52.388;13.390;2022-12-07T03:27:16;100676.88;;;-0.23;100.00
56681;BME280;42558;52.388;13.390;2022-12-07T03:30:02;100671.80;;;-0.24;100.00
56681;BME280;42558;52.388;13.390;2022-12-07T03:32:37;100669.19;;;-0.28;100.00
56681;BME280;42558;52.388;13.390;2022-12-07T03:35:30;100664.29;;;-0.29;100.00
56681;BME280;42558;52.388;13.390;2022-12-07T03:38:24;100665.40;;;-0.24;100.00
56681;BME280;42558;52.388;13.390;2022-12-07T03:41:00;100655.36;;;-0.21;100.00
56681;BME280;42558;52.388;13.390;2022-12-07T03:43:32;100646.08;;;-0.24;100.00
56681;BME280;42558;52.388;13.390;2022-12-07T03:46:36;100640.09;;;-0.23;100.00
56681;BME280;42558;52.388;13.390;2022-12-07T03:49:28;100639.77;;;-0.26;100.00
56681;BME280;42558;52.388;13.390;2022-12-07T03:55:31;100626.98;;;-0.23;100.00
56681;BME280;42558;52.388;13.390;2022-12-07T03:58:09;100614.74;;;-0.22;100.00
56681;BME280;42558;52.388;13.390;2022-12-07T04:00:42;100612.51;;;-0.19;100.00
56681;BME280;42558;52.388;13.390;2022-12-07T04:03:12;100611.14;;;-0.15;100.00
56681;BME280;42558;52.388;13.390;2022-12-07T04:05:43;100607.51;;;-0.12;100.00
56681;BME280;42558;52.388;13.390;2022-12-07T04:08:14;100607.49;;;-0.13;100.00
56681;BME280;42558;52.388;13.390;2022-12-07T04:10:44;100600.05;;;-0.13;100.00
56681;BME280;42558;52.388;13.390;2022-12-07T04:13:14;100598.19;;;-0.15;100.00
56681;BME280;42558;52.388;13.390;2022-12-07T04:15:44;100595.77;;;-0.12;100.00
56681;BME280;42558;52.388;13.390;2022-12-07T04:18:14;100597.73;;;-0.14;100.00
56681;BME280;42558;52.388;13.390;2022-12-07T04:20:45;100599.15;;;-0.13;100.00
56681;BME280;42558;52.388;13.390;2022-12-07T04:23:16;100596.83;;;-0.18;100.00
56681;BME280;42558;52.388;13.390;2022-12-07T04:25:48;100596.36;;;-0.17;100.00
56681;BME280;42558;52.388;13.390;2022-12-07T04:28:18;100595.45;;;-0.21;100.00
56681;BME280;42558;52.388;13.390;2022-12-07T04:30:48;100588.73;;;-0.24;100.00
56681;BME280;42558;52.388;13.390;2022-12-07T04:33:17;100587.13;;;-0.28;100.00
56681;BME280;42558;52.388;13.390;2022-12-07T04:35:47;100585.83;;;-0.27;100.00
56681;BME280;42558;52.388;13.390;2022-12-07T04:38:17;100581.22;;;-0.26;100.00
56681;BME280;42558;52.388;13.390;2022-12-07T04:40:47;100576.07;;;-0.25;100.00
56681;BME280;42558;52.388;13.390;2022-12-07T04:43:16;100570.42;;;-0.24;100.00
56681;BME280;42558;52.388;13.390;2022-12-07T04:45:47;100569.21;;;-0.21;100.00
56681;BME280;42558;52.388;13.390;2022-12-07T04:48:17;100565.70;;;-0.18;100.00
56681;BME280;42558;52.388;13.390;2022-12-07T04:50:49;100564.38;;;-0.14;100.00
56681;BME280;42558;52.388;13.390;2022-12-07T04:53:19;100560.30;;;-0.10;100.00
56681;BME280;42558;52.388;13.390;2022-12-07T04:55:49;100560.83;;;-0.07;100.00
56681;BME280;42558;52.388;13.390;2022-12-07T04:58:19;100559.08;;;-0.03;100.00
56681;BME280;42558;52.388;13.390;2022-12-07T05:00:49;100553.80;;;0.01;100.00
56681;BME280;42558;52.388;13.390;2022-12-07T05:03:23;100553.81;;;0.05;100.00
56681;BME280;42558;52.388;13.390;2022-12-07T05:05:52;100552.30;;;0.09;100.00
56681;BME280;42558;52.388;13.390;2022-12-07T05:08:22;100549.49;;;0.12;100.00
56681;BME280;42558;52.388;13.390;2022-12-07T05:10:52;100545.70;;;0.15;100.00
56681;BME280;42558;52.388;13.390;2022-12-07T05:13:22;100546.66;;;0.17;100.00
56681;BME280;42558;52.388;13.390;2022-12-07T05:15:51;100545.92;;;0.19;100.00
56681;BME280;42558;52.388;13.390;2022-12-07T05:18:19;100544.41;;;0.23;100.00
56681;BME280;42558;52.388;13.390;2022-12-07T05:20:48;100545.27;;;0.27;100.00
56681;BME280;42558;52.388;13.390;2022-12-07T05:23:17;100544.91;;;0.27;100.00
56681;BME280;42558;52.388;13.390;2022-12-07T05:25:45;100540.16;;;0.28;100.00
56681;BME280;42558;52.388;13.390;2022-12-07T05:28:13;100533.46;;;0.30;100.00
56681;BME280;42558;52.388;13.390;2022-12-07T05:30:41;100535.36;;;0.29;100.00
56681;BME280;42558;52.388;13.390;2022-12-07T05:33:09;100529.89;;;0.31;100.00
56681;BME280;42558;52.388;13.390;2022-12-07T05:35:38;100530.67;;;0.33;100.00
56681;BME280;42558;52.388;13.390;2022-12-07T05:38:06;100532.62;;;0.33;100.00
56681;BME280;42558;52.388;13.390;2022-12-07T05:40:36;100527.40;;;0.36;100.00
56681;BME280;42558;52.388;13.390;2022-12-07T05:43:06;100524.17;;;0.38;100.00
56681;BME280;42558;52.388;13.390;2022-12-07T05:45:34;100522.59;;;0.40;100.00
56681;BME280;42558;52.388;13.390;2022-12-07T05:48:03;100520.70;;;0.44;100.00
56681;BME280;42558;52.388;13.390;2022-12-07T05:50:31;100523.53;;;0.45;100.00
56681;BME280;42558;52.388;13.390;2022-12-07T05:53:00;100520.27;;;0.49;100.00
56681;BME280;42558;52.388;13.390;2022-12-07T05:55:28;100518.64;;;0.51;100.00
56681;BME280;42558;52.388;13.390;2022-12-07T05:57:57;100516.94;;;0.55;100.00
56681;BME280;42558;52.388;13.390;2022-12-07T06:00:45;100514.64;;;0.57;100.00
56681;BME280;42558;52.388;13.390;2022-12-07T06:03:20;100510.59;;;0.60;100.00
56681;BME280;42558;52.388;13.390;2022-12-07T06:05:52;100510.50;;;0.61;100.00
56681;BME280;42558;52.388;13.390;2022-12-07T06:08:22;100508.86;;;0.63;100.00
56681;BME280;42558;52.388;13.390;2022-12-07T06:10:52;100498.73;;;0.65;100.00
56681;BME280;42558;52.388;13.390;2022-12-07T06:13:39;100494.66;;;0.67;100.00
56681;BME280;42558;52.388;13.390;2022-12-07T06:16:16;100494.64;;;0.69;100.00
56681;BME280;42558;52.388;13.390;2022-12-07T06:18:44;100485.04;;;0.71;100.00
56681;BME280;42558;52.388;13.390;2022-12-07T06:21:12;100485.85;;;0.73;100.00
56681;BME280;42558;52.388;13.390;2022-12-07T06:23:41;100481.75;;;0.74;100.00
56681;BME280;42558;52.388;13.390;2022-12-07T06:26:09;100478.86;;;0.76;100.00
56681;BME280;42558;52.388;13.390;2022-12-07T06:28:37;100480.30;;;0.77;100.00
56681;BME280;42558;52.388;13.390;2022-12-07T06:31:06;100478.34;;;0.79;100.00
56681;BME280;42558;52.388;13.390;2022-12-07T06:33:43;100475.20;;;0.83;100.00
56681;BME280;42558;52.388;13.390;2022-12-07T06:36:13;100477.34;;;0.84;100.00
56681;BME280;42558;52.388;13.390;2022-12-07T06:38:43;100484.55;;;0.86;100.00
56681;BME280;42558;52.388;13.390;2022-12-07T06:41:12;100475.64;;;0.88;100.00
56681;BME280;42558;52.388;13.390;2022-12-07T06:43:42;100475.77;;;0.91;100.00
56681;BME280;42558;52.388;13.390;2022-12-07T06:46:13;100475.33;;;0.96;100.00
56681;BME280;42558;52.388;13.390;2022-12-07T06:48:44;100477.48;;;1.01;100.00
56681;BME280;42558;52.388;13.390;2022-12-07T06:51:13;100479.52;;;1.04;100.00
56681;BME280;42558;52.388;13.390;2022-12-07T06:53:43;100480.08;;;1.09;100.00
56681;BME280;42558;52.388;13.390;2022-12-07T06:56:13;100479.83;;;1.11;100.00
56681;BME280;42558;52.388;13.390;2022-12-07T06:58:43;100475.98;;;1.13;100.00
56681;BME280;42558;52.388;13.390;2022-12-07T07:01:15;100471.95;;;1.17;100.00
56681;BME280;42558;52.388;13.390;2022-12-07T07:03:46;100471.38;;;1.19;100.00
56681;BME280;42558;52.388;13.390;2022-12-07T07:06:16;100472.78;;;1.19;100.00
56681;BME280;42558;52.388;13.390;2022-12-07T07:08:46;100470.64;;;1.25;100.00
56681;BME280;42558;52.388;13.390;2022-12-07T07:11:16;100473.27;;;1.26;100.00
56681;BME280;42558;52.388;13.390;2022-12-07T07:13:47;100469.80;;;1.29;100.00
56681;BME280;42558;52.388;13.390;2022-12-07T07:16:16;100472.20;;;1.33;100.00
56681;BME280;42558;52.388;13.390;2022-12-07T07:18:46;100474.15;;;1.38;100.00
56681;BME280;42558;52.388;13.390;2022-12-07T07:21:16;100473.79;;;1.41;100.00
56681;BME280;42558;52.388;13.390;2022-12-07T07:23:46;100470.67;;;1.45;100.00
56681;BME280;42558;52.388;13.390;2022-12-07T07:26:16;100470.00;;;1.46;100.00
56681;BME280;42558;52.388;13.390;2022-12-07T07:28:51;100469.27;;;1.48;100.00
56681;BME280;42558;52.388;13.390;2022-12-07T07:31:21;100466.06;;;1.50;100.00
56681;BME280;42558;52.388;13.390;2022-12-07T07:33:51;100473.26;;;1.53;100.00
56681;BME280;42558;52.388;13.390;2022-12-07T07:36:21;100470.78;;;1.55;100.00
56681;BME280;42558;52.388;13.390;2022-12-07T07:38:51;100474.64;;;1.56;100.00
56681;BME280;42558;52.388;13.390;2022-12-07T07:41:21;100476.13;;;1.59;100.00
56681;BME280;42558;52.388;13.390;2022-12-07T07:43:50;100477.48;;;1.61;100.00
56681;BME280;42558;52.388;13.390;2022-12-07T07:46:20;100476.98;;;1.62;100.00
56681;BME280;42558;52.388;13.390;2022-12-07T07:48:50;100477.77;;;1.64;100.00
56681;BME280;42558;52.388;13.390;2022-12-07T07:51:20;100473.23;;;1.67;100.00
56681;BME280;42558;52.388;13.390;2022-12-07T07:53:49;100477.27;;;1.68;100.00
56681;BME280;42558;52.388;13.390;2022-12-07T07:56:19;100478.65;;;1.69;100.00
56681;BME280;42558;52.388;13.390;2022-12-07T07:58:52;100476.05;;;1.72;100.00
56681;BME280;42558;52.388;13.390;2022-12-07T08:01:22;100470.95;;;1.75;100.00
56681;BME280;42558;52.388;13.390;2022-12-07T08:03:52;100475.41;;;1.77;100.00
56681;BME280;42558;52.388;13.390;2022-12-07T08:06:22;100478.06;;;1.78;100.00
56681;BME280;42558;52.388;13.390;2022-12-07T08:08:57;100480.83;;;1.78;100.00
56681;BME280;42558;52.388;13.390;2022-12-07T08:11:26;100482.77;;;1.83;100.00
56681;BME280;42558;52.388;13.390;2022-12-07T08:13:54;100482.27;;;1.87;100.00
56681;BME280;42558;52.388;13.390;2022-12-07T08:16:23;100483.77;;;1.90;100.00
56681;BME280;42558;52.388;13.390;2022-12-07T08:18:51;100485.95;;;1.93;100.00
56681;BME280;42558;52.388;13.390;2022-12-07T08:21:20;100488.29;;;1.95;100.00
56681;BME280;42558;52.388;13.390;2022-12-07T08:23:48;100490.50;;;1.98;100.00
56681;BME280;42558;52.388;13.390;2022-12-07T08:26:16;100489.69;;;1.99;100.00
56681;BME280;42558;52.388;13.390;2022-12-07T08:28:45;100487.98;;;2.04;100.00
56681;BME280;42558;52.388;13.390;2022-12-07T08:31:17;100499.52;;;2.06;100.00
56681;BME280;42558;52.388;13.390;2022-12-07T08:33:46;100496.98;;;2.07;100.00
56681;BME280;42558;52.388;13.390;2022-12-07T08:36:17;100497.73;;;2.08;100.00
56681;BME280;42558;52.388;13.390;2022-12-07T08:38:44;100501.62;;;2.10;100.00
56681;BME280;42558;52.388;13.390;2022-12-07T08:41:34;100498.88;;;2.14;100.00
56681;BME280;42558;52.388;13.390;2022-12-07T08:44:04;100500.39;;;2.18;100.00
56681;BME280;42558;52.388;13.390;2022-12-07T08:46:53;100497.10;;;2.18;100.00
56681;BME280;42558;52.388;13.390;2022-12-07T08:49:41;100498.89;;;2.15;100.00
56681;BME280;42558;52.388;13.390;2022-12-07T08:52:13;100499.45;;;2.20;100.00
56681;BME280;42558;52.388;13.390;2022-12-07T08:54:43;100502.39;;;2.24;100.00
56681;BME280;42558;52.388;13.390;2022-12-07T08:57:13;100502.67;;;2.22;100.00
56681;BME280;42558;52.388;13.390;2022-12-07T08:59:43;100507.09;;;2.24;100.00
56681;BME280;42558;52.388;13.390;2022-12-07T09:02:13;100519.04;;;2.24;100.00
56681;BME280;42558;52.388;13.390;2022-12-07T09:04:42;100517.63;;;2.19;100.00
56681;BME280;42558;52.388;13.390;2022-12-07T09:07:12;100518.27;;;2.18;100.00
56681;BME280;42558;52.388;13.390;2022-12-07T09:09:42;100517.89;;;2.17;100.00
56681;BME280;42558;52.388;13.390;2022-12-07T09:12:13;100521.52;;;2.17;100.00
56681;BME280;42558;52.388;13.390;2022-12-07T09:14:44;100519.21;;;2.12;100.00
56681;BME280;42558;52.388;13.390;2022-12-07T09:17:13;100524.65;;;2.13;100.00
56681;BME280;42558;52.388;13.390;2022-12-07T09:19:42;100530.08;;;2.14;100.00
56681;BME280;42558;52.388;13.390;2022-12-07T09:22:12;100533.06;;;2.11;100.00
56681;BME280;42558;52.388;13.390;2022-12-07T09:24:41;100533.34;;;2.02;100.00
56681;BME280;42558;52.388;13.390;2022-12-07T09:27:12;100530.91;;;1.98;100.00
56681;BME280;42558;52.388;13.390;2022-12-07T09:29:42;100537.02;;;1.99;100.00
56681;BME280;42558;52.388;13.390;2022-12-07T09:32:11;100537.95;;;2.01;100.00
56681;BME280;42558;52.388;13.390;2022-12-07T09:34:41;100538.34;;;1.98;100.00
56681;BME280;42558;52.388;13.390;2022-12-07T09:37:11;100538.33;;;1.97;100.00
56681;BME280;42558;52.388;13.390;2022-12-07T09:39:41;100540.02;;;2.00;100.00
56681;BME280;42558;52.388;13.390;2022-12-07T09:42:31;100545.54;;;2.03;100.00
56681;BME280;42558;52.388;13.390;2022-12-07T09:45:10;100544.63;;;2.02;100.00
56681;BME280;42558;52.388;13.390;2022-12-07T09:47:42;100542.17;;;2.09;100.00
56681;BME280;42558;52.388;13.390;2022-12-07T09:50:16;100541.14;;;2.10;100.00
56681;BME280;42558;52.388;13.390;2022-12-07T09:52:49;100546.55;;;2.14;100.00
56681;BME280;42558;52.388;13.390;2022-12-07T09:55:25;100551.40;;;2.18;100.00
56681;BME280;42558;52.388;13.390;2022-12-07T09:57:58;100555.68;;;2.13;100.00
56681;BME280;42558;52.388;13.390;2022-12-07T10:00:29;100558.58;;;2.08;100.00
56681;BME280;42558;52.388;13.390;2022-12-07T10:03:01;100556.39;;;2.06;100.00
56681;BME280;42558;52.388;13.390;2022-12-07T10:05:38;100563.52;;;2.07;100.00
56681;BME280;42558;52.388;13.390;2022-12-07T10:08:13;100560.73;;;2.02;100.00
56681;BME280;42558;52.388;13.390;2022-12-07T10:10:53;100563.30;;;2.01;100.00
56681;BME280;42558;52.388;13.390;2022-12-07T10:13:45;100564.66;;;1.97;100.00
56681;BME280;42558;52.388;13.390;2022-12-07T10:16:41;100564.12;;;1.93;100.00
56681;BME280;42558;52.388;13.390;2022-12-07T10:19:32;100566.81;;;1.95;100.00
56681;BME280;42558;52.388;13.390;2022-12-07T10:22:14;100565.43;;;1.90;100.00
56681;BME280;42558;52.388;13.390;2022-12-07T10:24:47;100567.49;;;1.90;100.00
56681;BME280;42558;52.388;13.390;2022-12-07T10:27:31;100571.73;;;1.88;100.00
56681;BME280;42558;52.388;13.390;2022-12-07T10:30:07;100568.89;;;1.90;100.00
56681;BME280;42558;52.388;13.390;2022-12-07T10:32:39;100567.46;;;1.94;100.00
56681;BME280;42558;52.388;13.390;2022-12-07T10:35:28;100563.66;;;1.94;100.00
56681;BME280;42558;52.388;13.390;2022-12-07T10:38:00;100562.58;;;1.97;100.00
56681;BME280;42558;52.388;13.390;2022-12-07T10:40:35;100559.96;;;2.00;100.00
56681;BME280;42558;52.388;13.390;2022-12-07T10:49:32;100546.50;;;2.62;100.00
56681;BME280;42558;52.388;13.390;2022-12-07T11:01:03;100544.54;;;2.40;100.00
56681;BME280;42558;52.388;13.390;2022-12-07T11:06:33;100542.67;;;2.29;100.00
56681;BME280;42558;52.388;13.390;2022-12-07T11:09:38;100542.64;;;2.36;100.00
56681;BME280;42558;52.388;13.390;2022-12-07T11:18:12;100539.61;;;2.34;100.00
56681;BME280;42558;52.388;13.390;2022-12-07T11:21:07;100536.96;;;2.37;100.00
56681;BME280;42558;52.388;13.390;2022-12-07T11:26:58;100533.86;;;2.46;100.00
56681;BME280;42558;52.388;13.390;2022-12-07T11:29:51;100534.56;;;2.46;100.00
56681;BME280;42558;52.388;13.390;2022-12-07T11:38:23;100528.45;;;2.50;100.00
56681;BME280;42558;52.388;13.390;2022-12-07T11:41:05;100524.41;;;2.48;100.00
56681;BME280;42558;52.388;13.390;2022-12-07T11:44:38;100523.41;;;2.49;100.00
56681;BME280;42558;52.388;13.390;2022-12-07T11:47:20;100524.84;;;2.50;100.00
56681;BME280;42558;52.388;13.390;2022-12-07T11:50:25;100518.75;;;2.54;100.00
56681;BME280;42558;52.388;13.390;2022-12-07T11:53:14;100520.25;;;2.57;100.00
56681;BME280;42558;52.388;13.390;2022-12-07T11:59:01;100518.30;;;2.60;100.00
56681;BME280;42558;52.388;13.390;2022-12-07T12:02:14;100515.80;;;2.58;100.00
56681;BME280;42558;52.388;13.390;2022-12-07T12:07:27;100511.05;;;2.65;100.00
56681;BME280;42558;52.388;13.390;2022-12-07T12:10:27;100510.49;;;2.72;100.00
56681;BME280;42558;52.388;13.390;2022-12-07T12:13:19;100505.42;;;2.71;100.00
56681;BME280;42558;52.388;13.390;2022-12-07T12:20:15;100499.94;;;2.69;100.00
56681;BME280;42558;52.388;13.390;2022-12-07T12:22:59;100499.47;;;2.70;100.00
56681;BME280;42558;52.388;13.390;2022-12-07T12:25:48;100502.56;;;2.69;100.00
56681;BME280;42558;52.388;13.390;2022-12-07T12:28:49;100500.82;;;2.69;100.00
56681;BME280;42558;52.388;13.390;2022-12-07T12:34:00;100499.79;;;2.70;100.00
56681;BME280;42558;52.388;13.390;2022-12-07T12:39:18;100493.22;;;2.79;100.00
56681;BME280;42558;52.388;13.390;2022-12-07T12:41:51;100493.41;;;2.83;100.00
56681;BME280;42558;52.388;13.390;2022-12-07T12:47:52;100484.69;;;2.87;100.00
56681;BME280;42558;52.388;13.390;2022-12-07T12:50:19;100488.02;;;2.92;100.00
56681;BME280;42558;52.388;13.390;2022-12-07T12:52:55;100482.85;;;2.93;100.00
56681;BME280;42558;52.388;13.390;2022-12-07T12:55:45;100484.06;;;3.02;100.00
56681;BME280;42558;52.388;13.390;2022-12-07T13:04:21;100475.59;;;3.12;100.00
56681;BME280;42558;52.388;13.390;2022-12-07T13:06:51;100478.64;;;3.10;100.00
56681;BME280;42558;52.388;13.390;2022-12-07T13:09:30;100479.02;;;3.10;100.00
56681;BME280;42558;52.388;13.390;2022-12-07T13:12:14;100479.52;;;3.10;100.00
56681;BME280;42558;52.388;13.390;2022-12-07T13:14:55;100482.23;;;3.13;100.00
56681;BME280;42558;52.388;13.390;2022-12-07T13:20:03;100479.73;;;3.11;100.00
56681;BME280;42558;52.388;13.390;2022-12-07T13:25:30;100473.23;;;3.05;100.00
56681;BME280;42558;52.388;13.390;2022-12-07T13:28:15;100469.41;;;3.04;100.00
56681;BME280;42558;52.388;13.390;2022-12-07T13:33:48;100464.05;;;3.01;100.00
56681;BME280;42558;52.388;13.390;2022-12-07T13:36:33;100464.59;;;2.96;100.00
56681;BME280;42558;52.388;13.390;2022-12-07T13:41:49;100459.45;;;2.89;100.00
56681;BME280;42558;52.388;13.390;2022-12-07T13:44:21;100458.91;;;2.85;100.00
56681;BME280;42558;52.388;13.390;2022-12-07T13:47:15;100459.73;;;2.84;100.00
56681;BME280;42558;52.388;13.390;2022-12-07T13:49:52;100464.72;;;2.78;100.00
56681;BME280;42558;52.388;13.390;2022-12-07T13:55:01;100471.13;;;2.78;100.00
56681;BME280;42558;52.388;13.390;2022-12-07T13:57:32;100474.80;;;2.74;100.00
56681;BME280;42558;52.388;13.390;2022-12-07T14:00:19;100473.96;;;2.75;100.00
56681;BME280;42558;52.388;13.390;2022-12-07T14:03:33;100478.81;;;2.70;100.00
56681;BME280;42558;52.388;13.390;2022-12-07T14:06:22;100480.86;;;2.69;100.00
56681;BME280;42558;52.388;13.390;2022-12-07T14:09:16;100479.19;;;2.67;100.00
56681;BME280;42558;52.388;13.390;2022-12-07T14:11:50;100482.70;;;2.63;100.00
56681;BME280;42558;52.388;13.390;2022-12-07T14:14:26;100483.05;;;2.59;100.00
56681;BME280;42558;52.388;13.390;2022-12-07T14:17:24;100480.92;;;2.58;100.00
56681;BME280;42558;52.388;13.390;2022-12-07T14:19:56;100481.75;;;2.57;100.00
56681;BME280;42558;52.388;13.390;2022-12-07T14:25:20;100478.70;;;2.63;100.00
56681;BME280;42558;52.388;13.390;2022-12-07T14:27:59;100479.67;;;2.62;100.00
56681;BME280;42558;52.388;13.390;2022-12-07T14:30:32;100478.33;;;2.62;100.00
56681;BME280;42558;52.388;13.390;2022-12-07T14:33:04;100483.05;;;2.59;100.00
56681;BME280;42558;52.388;13.390;2022-12-07T14:35:37;100484.90;;;2.58;100.00
56681;BME280;42558;52.388;13.390;2022-12-07T14:38:10;100483.72;;;2.59;100.00
56681;BME280;42558;52.388;13.390;2022-12-07T14:40:39;100481.21;;;2.57;100.00
56681;BME280;42558;52.388;13.390;2022-12-07T14:43:15;100480.25;;;2.54;100.00
56681;BME280;42558;52.388;13.390;2022-12-07T14:45:46;100473.41;;;2.49;100.00
56681;BME280;42558;52.388;13.390;2022-12-07T14:48:16;100471.42;;;2.42;100.00
56681;BME280;42558;52.388;13.390;2022-12-07T14:51:10;100466.42;;;2.39;100.00
56681;BME280;42558;52.388;13.390;2022-12-07T14:54:04;100471.17;;;2.32;100.00
56681;BME280;42558;52.388;13.390;2022-12-07T14:56:34;100475.91;;;2.29;100.00